createdAt,value
2023-02-25T00:11:59.540Z,91.2
2023-02-25T00:27:09.689Z,91.3
2023-02-25T00:42:20.044Z,90.7
2023-02-25T00:57:29.369Z,91.3
2023-02-25T01:12:38.972Z,91.5
2023-02-25T01:27:48.703Z,91.5
2023-02-25T01:42:58.668Z,91.4
2023-02-25T01:58:07.854Z,91.4
2023-02-25T02:13:17.300Z,91.5
2023-02-25T02:28:27.189Z,91.4
2023-02-25T02:43:36.636Z,91.3
2023-02-25T02:58:46.308Z,91.3
2023-02-25T03:13:55.702Z,91.3
2023-02-25T03:29:04.824Z,91.3
2023-02-25T03:44:14.756Z,90.8
2023-02-25T03:59:24.444Z,91.2
2023-02-25T04:14:33.765Z,91.2
2023-02-25T04:29:43.333Z,91.2
2023-02-25T04:44:52.631Z,91.1
2023-02-25T05:00:02.443Z,91.1
2023-02-25T05:15:12.165Z,91.1
2023-02-25T05:30:22.748Z,91.1
2023-02-25T05:45:32.249Z,91.1
2023-02-25T06:00:42.050Z,91.1
2023-02-25T06:15:52.025Z,91
2023-02-25T06:31:01.978Z,91
2023-02-25T06:46:13.085Z,90.8
2023-02-25T07:01:23.880Z,90.7
2023-02-25T07:16:33.772Z,90.6
2023-02-25T07:31:44.610Z,90.6
2023-02-25T07:46:54.265Z,90.2
2023-02-25T08:02:04.725Z,90
2023-02-25T08:17:15.431Z,89.6
2023-02-25T08:32:25.775Z,89.1
2023-02-25T08:47:35.634Z,88.7
2023-02-25T09:02:45.284Z,88.7
2023-02-25T09:17:54.962Z,88.6
2023-02-25T09:33:05.419Z,88.7
2023-02-25T09:48:15.161Z,88.9
2023-02-25T10:03:25.305Z,88.8
2023-02-25T10:18:35.124Z,88.4
2023-02-25T10:33:45.454Z,88.3
2023-02-25T10:48:55.083Z,88.2
2023-02-25T11:04:05.227Z,88.2
2023-02-25T11:19:14.440Z,88.2
2023-02-25T11:34:24.275Z,88.2
2023-02-25T11:49:34.188Z,86.8
2023-02-25T12:04:44.028Z,86.7
2023-02-25T12:19:53.433Z,86.9
2023-02-25T12:36:10.172Z,83
2023-02-25T12:51:20.814Z,84.1
2023-02-25T13:06:30.221Z,84.5
2023-02-25T13:21:39.064Z,85.5
2023-02-25T13:36:48.591Z,85.5
2023-02-25T13:51:57.488Z,82.1
2023-02-25T14:07:08.426Z,78.7
2023-02-25T14:22:17.411Z,80.3
2023-02-25T14:37:27.326Z,81.4
2023-02-25T14:52:36.172Z,83
2023-02-25T15:07:45.681Z,83.8
2023-02-25T15:22:55.695Z,83.5
2023-02-25T15:38:04.815Z,83.7
2023-02-25T15:53:14.354Z,83.9
2023-02-25T16:08:23.786Z,83.9
2023-02-25T16:23:33.700Z,84.1
2023-02-25T16:38:43.188Z,84.1
2023-02-25T16:53:52.565Z,84.2
2023-02-25T17:09:02.166Z,84.2
2023-02-25T17:24:11.572Z,84.2
2023-02-25T17:39:21.619Z,84.3
2023-02-25T17:54:31.254Z,84.4
2023-02-25T18:09:41.084Z,85.6
2023-02-25T18:24:49.690Z,84.9
2023-02-25T18:39:59.219Z,85.2
2023-02-25T18:55:08.898Z,85.2
2023-02-25T19:10:18.147Z,85.3
2023-02-25T19:25:27.527Z,85.5
2023-02-25T19:40:37.118Z,85.5
2023-02-25T19:55:46.710Z,85.4
2023-02-25T20:10:55.828Z,85.4
2023-02-25T20:26:05.167Z,85.4
2023-02-25T20:41:14.574Z,85.4
2023-02-25T20:56:25.884Z,85.3
2023-02-25T21:11:35.402Z,85.4
2023-02-25T21:26:45.331Z,85.5
2023-02-25T21:41:54.425Z,85.8
2023-02-25T21:57:03.818Z,85.3
2023-02-25T22:12:13.168Z,85.4
2023-02-25T22:27:23.923Z,85.2
2023-02-25T22:42:33.636Z,85.3
2023-02-25T22:57:43.121Z,85.3
2023-02-25T23:12:52.802Z,85.4
2023-02-25T23:28:02.105Z,85.5
2023-02-25T23:43:13.251Z,85.4
2023-02-25T23:58:24.005Z,85.4
